»·PEaware :: N2287 KOTH-KEUG

N2287 :: KOTH-KEUG

FLIGHT INFORMATION

Flight Status: Arrived
Operator: Privately registered:
United States
More flights under this callsign
Pilot: Leo F. (613)
Aircraft: CESSNA 310
(C310)
More flights by this aircraft type
Origin: KOTH North Bend Mun
United States
Destination: KEUG Mahlon Sweet
United States
More flights between these airports :: More routes between these airports
Route: OTH6 SCOTY V121 EUG
File this flight plan on PilotEdge
Remarks:
Altitude:
(Current/Filed)
5,000ft
Speed:
(Current/Filed)
180kts
Departed: 29-Jun-18 09:43 AM
Arrived: 29-Jun-18 10:15 AM
Distance/Time
Traveled:
0nm/0:32
Distance/Time
To Go:
Arrived

Flight Plot

Page will automatically refresh every two minutes.

Flight plan parsing failed; only flown route is shown


Map Options




Map Legend


Flown Route
Filed Route
Departure Airport
Arrival Airport
Navaid (VOR, NDB)
Fix

Horizontal Profiles

Position Reports

Time Latitude Longitude Heading Altitude Ground
Speed
29-Jun-18 09:23 43.414475 -124.246038 51 20ft 0kts
29-Jun-18 09:24 43.414475 -124.246038 51 20ft 0kts
29-Jun-18 09:25 43.414475 -124.246038 51 20ft 0kts
29-Jun-18 09:26 43.414475 -124.246038 51 20ft 0kts
29-Jun-18 09:27 43.414475 -124.246038 51 20ft 0kts
29-Jun-18 09:28 43.414475 -124.246038 51 20ft 0kts
29-Jun-18 09:29 43.414475 -124.246038 51 20ft 0kts
29-Jun-18 09:30 43.414475 -124.246038 51 20ft 0kts
29-Jun-18 09:31 43.414475 -124.246038 51 20ft 0kts
29-Jun-18 09:32 43.414475 -124.246038 51 20ft 0kts
29-Jun-18 09:33 43.414475 -124.246038 51 20ft 0kts
29-Jun-18 09:34 43.414475 -124.246038 51 20ft 0kts
29-Jun-18 09:35 43.414475 -124.246038 51 20ft 0kts
29-Jun-18 09:36 43.414475 -124.246038 51 20ft 0kts
29-Jun-18 09:37 43.412754 -124.242149 152 20ft 24kts
29-Jun-18 09:38 43.409156 -124.238810 58 20ft 0kts
29-Jun-18 09:39 43.409156 -124.238810 58 20ft 0kts
29-Jun-18 09:40 43.409156 -124.238810 58 20ft 0kts
29-Jun-18 09:41 43.409156 -124.238810 58 20ft 0kts
29-Jun-18 09:42 43.409873 -124.238281 324 20ft 0kts
29-Jun-18 09:43 43.430115 -124.254385 328 822ft 130kts
29-Jun-18 09:44 43.429513 -124.301296 237 2180ft 149kts
29-Jun-18 09:45 43.417971 -124.352192 302 3451ft 136kts
29-Jun-18 09:46 43.434218 -124.329629 104 4736ft 133kts
29-Jun-18 09:47 43.421721 -124.276415 102 5317ft 169kts
29-Jun-18 09:48 43.414317 -124.205606 90 5244ft 190kts
29-Jun-18 09:49 43.424166 -124.138349 47 5186ft 179kts
29-Jun-18 09:50 43.461607 -124.094356 35 5192ft 176kts
29-Jun-18 09:51 43.499218 -124.052780 40 5188ft 168kts
29-Jun-18 09:52 43.532524 -124.008788 42 5184ft 164kts
29-Jun-18 09:53 43.565059 -123.964706 42 5184ft 163kts
29-Jun-18 09:54 43.597519 -123.920839 42 5181ft 163kts
29-Jun-18 09:55 43.629937 -123.876688 42 5176ft 163kts
29-Jun-18 09:56 43.663220 -123.833860 40 5185ft 163kts
29-Jun-18 09:57 43.696629 -123.791137 42 5191ft 163kts
29-Jun-18 09:58 43.730038 -123.748495 40 5205ft 163kts
29-Jun-18 09:59 43.762841 -123.704890 42 5221ft 163kts
29-Jun-18 10:00 43.795291 -123.660490 42 5234ft 164kts
29-Jun-18 10:01 43.827871 -123.616180 42 5253ft 165kts
29-Jun-18 10:02 43.862216 -123.571935 41 5246ft 168kts
29-Jun-18 10:03 43.896244 -123.528708 41 5243ft 164kts
29-Jun-18 10:04 43.929951 -123.485955 40 5244ft 164kts
29-Jun-18 10:05 43.963996 -123.442689 40 5234ft 166kts
29-Jun-18 10:06 43.998027 -123.399454 40 5138ft 169kts
29-Jun-18 10:07 44.033304 -123.355046 38 4435ft 164kts
29-Jun-18 10:08 44.073517 -123.328631 15 3643ft 158kts
29-Jun-18 10:09 44.114381 -123.307148 27 2836ft 153kts
29-Jun-18 10:10 44.146232 -123.287741 22 2412ft 108kts
29-Jun-18 10:11 44.172867 -123.266094 51 2403ft 118kts
29-Jun-18 10:12 44.189491 -123.222167 80 1694ft 133kts
29-Jun-18 10:13 44.161047 -123.215620 202 981ft 123kts
29-Jun-18 10:14 44.133000 -123.219086 178 372ft 60kts
29-Jun-18 10:15 44.125024 -123.218029 142 372ft 0kts
29-Jun-18 10:16 44.124487 -123.217512 146 372ft 12kts
29-Jun-18 10:17 44.120204 -123.217117 159 372ft 14kts
29-Jun-18 10:18 43.411883 -124.242928 240 23ft 0kts

Navigation Log

Ident Type
Flight plan parsing failed, navigation log unavailable